Time;durP1;ratioP1;P1;durP2;ratioP2;P2;SDS_P1;SDS_P2;PMS_P1;PMS_P2;Temp;Humidity;BMP_temperature;BMP_pressure;BME280_temperature;BME280_humidity;BME280_pressure;Samples;Min_cycle;Max_cycle;Signal;HPM_P1;HPM_P2
2024/03/05 00:00:58;;;;;;;;;2.00;1.00;;;;;9.74;63.35;100532.47;5086921;27;45500;-62
2024/03/05 00:03:24;;;;;;;;;2.00;1.75;;;;;9.76;63.45;100534.16;5082391;27;45470;-62
2024/03/05 00:05:49;;;;;;;;;2.00;2.00;;;;;9.76;63.29;100528.09;5075939;27;45654;-62
2024/03/05 00:08:15;;;;;;;;;2.25;2.00;;;;;9.74;63.43;100525.50;5074167;27;45507;-63
2024/03/05 00:10:41;;;;;;;;;1.50;1.50;;;;;9.74;63.63;100524.63;5076067;28;45625;-62
2024/03/05 00:13:07;;;;;;;;;2.75;1.50;;;;;9.69;63.81;100522.16;5076411;27;45517;-62
2024/03/05 00:15:32;;;;;;;;;1.75;0.00;;;;;9.72;63.94;100523.81;5055007;28;45228;-62
2024/03/05 00:17:58;;;;;;;;;2.00;2.00;;;;;9.72;63.80;100531.66;5067069;27;45316;-62
2024/03/05 00:20:23;;;;;;;;;2.75;2.75;;;;;9.68;63.62;100529.16;5075520;27;45529;-63
2024/03/05 00:22:50;;;;;;;;;1.75;1.75;;;;;9.69;63.43;100535.22;5069172;27;52445;-62
2024/03/05 00:25:16;;;;;;;;;1.00;1.00;;;;;9.69;64.10;100527.38;5069975;27;46053;-62
2024/03/05 00:27:41;;;;;;;;;1.00;0.00;;;;;9.66;63.83;100517.00;5068197;28;45506;-61
2024/03/05 00:30:12;;;;;;;;;2.75;1.75;;;;;9.69;63.81;100523.00;5069297;27;46359;-63
2024/03/05 00:32:37;;;;;;;;;1.75;1.75;;;;;9.70;64.12;100523.84;5074366;27;45357;-61
2024/03/05 00:35:05;;;;;;;;;2.75;1.25;;;;;9.70;63.89;100518.63;5067615;27;54025;-61
2024/03/05 00:37:30;;;;;;;;;1.00;1.00;;;;;9.69;64.31;100525.63;5068195;27;45939;-63
2024/03/05 00:39:55;;;;;;;;;1.75;1.75;;;;;9.72;64.07;100529.03;5071368;28;45689;-62
2024/03/05 00:42:21;;;;;;;;;3.50;1.00;;;;;9.69;64.07;100522.16;5069002;27;62195;-62
2024/03/05 00:44:46;;;;;;;;;1.50;1.50;;;;;9.68;64.33;100530.88;5073877;27;75502;-61
2024/03/05 00:47:13;;;;;;;;;3.00;1.00;;;;;9.65;64.82;100531.84;5068077;27;72079;-63
2024/03/05 00:49:38;;;;;;;;;4.25;2.25;;;;;9.64;64.88;100530.09;5068634;27;45510;-62
2024/03/05 00:52:04;;;;;;;;;1.25;1.00;;;;;9.66;65.06;100537.91;5065265;27;45501;-62
2024/03/05 00:54:29;;;;;;;;;1.50;1.00;;;;;9.63;65.11;100533.63;5077177;27;47111;-63
2024/03/05 00:56:55;;;;;;;;;2.00;1.50;;;;;9.61;65.25;100531.94;5072405;27;65574;-61
2024/03/05 00:59:20;;;;;;;;;2.75;1.00;;;;;9.58;65.44;100524.19;5071418;27;45460;-62
2024/03/05 01:01:46;;;;;;;;;1.00;1.00;;;;;9.55;65.97;100530.34;5069660;27;45450;-61
2024/03/05 01:04:11;;;;;;;;;1.50;0.50;;;;;9.54;66.10;100519.94;5065698;27;62367;-62
2024/03/05 01:06:36;;;;;;;;;1.00;1.00;;;;;9.46;66.08;100520.16;5066207;28;63086;-62
2024/03/05 01:09:07;;;;;;;;;1.00;1.00;;;;;9.50;66.40;100527.00;5067602;27;45445;-61
2024/03/05 01:11:32;;;;;;;;;3.00;2.00;;;;;9.46;66.64;100530.59;5068720;27;45739;-61
2024/03/05 01:13:58;;;;;;;;;1.00;1.00;;;;;9.41;67.22;100527.25;5066472;28;46926;-61
2024/03/05 01:16:26;;;;;;;;;1.00;1.00;;;;;9.41;67.14;100522.88;5068162;27;46639;-62
2024/03/05 01:18:51;;;;;;;;;1.00;1.00;;;;;9.38;67.66;100522.94;5065901;28;45204;-62
2024/03/05 01:21:16;;;;;;;;;0.75;0.75;;;;;9.39;67.77;100529.03;5068157;27;72063;-61
2024/03/05 01:23:43;;;;;;;;;3.25;1.75;;;;;9.35;67.98;100517.81;5077605;27;45403;-62
2024/03/05 01:26:09;;;;;;;;;3.00;1.00;;;;;9.36;68.18;100518.66;5071765;27;46395;-62
2024/03/05 01:28:34;;;;;;;;;2.00;2.00;;;;;9.38;68.52;100517.72;5067966;27;45378;-61
2024/03/05 01:30:59;;;;;;;;;0.75;0.75;;;;;9.38;68.63;100522.94;5075525;27;49219;-62
2024/03/05 01:33:25;;;;;;;;;3.00;1.00;;;;;9.39;68.75;100527.28;5070210;27;58783;-61
2024/03/05 01:35:51;;;;;;;;;3.00;2.00;;;;;9.40;68.73;100517.69;5073757;28;45461;-62
2024/03/05 01:38:17;;;;;;;;;1.00;1.00;;;;;9.40;68.54;100520.28;5069926;28;45467;-63
2024/03/05 01:40:42;;;;;;;;;2.50;1.00;;;;;9.39;68.82;100518.59;5075494;27;45427;-62
2024/03/05 01:43:09;;;;;;;;;2.00;2.00;;;;;9.40;68.90;100522.91;5058614;28;64136;-61
2024/03/05 01:45:34;;;;;;;;;4.50;1.50;;;;;9.39;69.27;100522.06;5070851;27;45447;-62
2024/03/05 01:48:00;;;;;;;;;2.25;2.00;;;;;9.40;69.24;100518.56;5071335;27;58475;-61
2024/03/05 01:50:27;;;;;;;;;1.50;1.25;;;;;9.40;69.76;100515.94;5076932;27;46148;-61
2024/03/05 01:52:52;;;;;;;;;2.25;1.25;;;;;9.39;69.85;100514.22;5072545;27;45596;-62
2024/03/05 01:55:18;;;;;;;;;2.00;2.00;;;;;9.39;69.77;100515.97;5071488;27;45298;-61
2024/03/05 01:57:46;;;;;;;;;1.25;1.25;;;;;9.39;69.99;100522.06;5070916;27;67278;-61
2024/03/05 02:00:15;;;;;;;;;2.75;2.00;;;;;9.41;70.15;100516.81;5067679;28;45311;-61
2024/03/05 02:02:43;;;;;;;;;7.00;3.25;;;;;9.41;70.12;100508.97;5067393;27;47182;-62
2024/03/05 02:05:08;;;;;;;;;5.50;4.50;;;;;9.41;70.11;100508.97;5078766;27;45302;-62
2024/03/05 02:07:35;;;;;;;;;7.25;3.50;;;;;9.40;70.57;100518.56;5070523;27;50043;-61
2024/03/05 02:10:07;;;;;;;;;10.00;8.25;;;;;9.42;70.49;100514.16;5070898;28;45330;-62
2024/03/05 02:12:35;;;;;;;;;4.50;4.00;;;;;9.43;70.45;100521.06;5071380;27;46165;-62
2024/03/05 02:15:01;;;;;;;;;3.75;2.75;;;;;9.45;70.41;100531.47;5070842;28;45365;-62
2024/03/05 02:17:26;;;;;;;;;2.00;1.75;;;;;9.44;70.48;100520.19;5058968;28;45356;-60
2024/03/05 02:19:52;;;;;;;;;2.50;2.00;;;;;9.45;70.51;100526.25;5070586;27;45320;-62
2024/03/05 02:22:17;;;;;;;;;3.00;2.00;;;;;9.46;70.21;100528.84;5062767;27;75482;-62
2024/03/05 02:24:42;;;;;;;;;3.25;2.00;;;;;9.45;70.63;100523.66;5067252;28;64896;-62
2024/03/05 02:27:08;;;;;;;;;4.50;2.50;;;;;9.44;70.94;100522.78;5072922;28;45752;-62
2024/03/05 02:29:37;;;;;;;;;2.75;2.25;;;;;9.46;70.79;100518.38;5073593;27;56770;-61
2024/03/05 02:32:03;;;;;;;;;3.25;3.00;;;;;9.48;70.65;100513.13;5064014;27;46198;-61
2024/03/05 02:34:28;;;;;;;;;15.75;10.75;;;;;9.48;70.84;100508.75;5073732;27;45297;-61
2024/03/05 02:36:53;;;;;;;;;7.50;4.00;;;;;9.51;70.84;100502.59;5071727;27;68135;-61
2024/03/05 02:39:20;;;;;;;;;9.50;5.75;;;;;9.55;70.83;100516.44;5075802;27;70767;-62
2024/03/05 02:41:45;;;;;;;;;9.00;6.25;;;;;9.55;70.81;100516.44;5077229;27;45306;-62
2024/03/05 02:44:10;;;;;;;;;4.00;4.00;;;;;9.52;70.71;100509.53;5070906;28;72134;-62
2024/03/05 02:46:36;;;;;;;;;4.00;2.00;;;;;9.54;71.22;100512.94;5063792;28;45395;-62
2024/03/05 02:49:03;;;;;;;;;3.00;2.00;;;;;9.50;71.30;100519.16;5073151;28;70859;-62
2024/03/05 02:51:28;;;;;;;;;3.00;3.00;;;;;9.48;71.28;100513.13;5074479;27;46141;-62
2024/03/05 02:53:55;;;;;;;;;4.25;3.00;;;;;9.47;71.49;100511.41;5075948;27;62643;-61
2024/03/05 02:56:20;;;;;;;;;4.50;2.75;;;;;9.44;71.54;100509.75;5070304;27;45346;-61
2024/03/05 02:58:45;;;;;;;;;6.25;3.00;;;;;9.44;71.73;100496.69;5070331;28;45263;-61
2024/03/05 03:01:11;;;;;;;;;3.00;2.50;;;;;9.48;71.83;100510.53;5073219;27;59673;-61
2024/03/05 03:03:36;;;;;;;;;1.00;1.00;;;;;9.49;71.70;100507.88;5073827;28;70813;-61
2024/03/05 03:06:05;;;;;;;;;2.00;2.00;;;;;9.49;71.83;100507.00;5068999;27;68435;-62
2024/03/05 03:08:30;;;;;;;;;6.00;2.75;;;;;9.48;72.08;100508.75;5063139;28;45331;-61
2024/03/05 03:10:56;;;;;;;;;6.75;4.50;;;;;9.47;71.90;100508.78;5068584;27;45704;-61
2024/03/05 03:13:23;;;;;;;;;6.00;4.25;;;;;9.48;72.15;100507.91;5071597;28;45354;-61
2024/03/05 03:15:48;;;;;;;;;4.50;3.00;;;;;9.50;72.50;100513.94;5065854;27;45471;-61
2024/03/05 03:18:14;;;;;;;;;2.25;2.00;;;;;9.49;72.12;100515.72;5075634;27;45497;-61
2024/03/05 03:20:40;;;;;;;;;4.00;2.00;;;;;9.50;72.04;100514.78;5084715;27;47017;-62
2024/03/05 03:23:07;;;;;;;;;2.75;2.00;;;;;9.49;72.20;100515.72;5070180;28;45553;-61
2024/03/05 03:25:33;;;;;;;;;3.75;2.00;;;;;9.43;72.26;100512.38;5078373;27;45239;-61
2024/03/05 03:27:58;;;;;;;;;1.75;1.00;;;;;9.45;72.65;100516.66;5076347;27;45585;-62
2024/03/05 03:30:26;;;;;;;;;4.75;3.00;;;;;9.46;72.76;100513.16;5063977;27;46135;-61
2024/03/05 03:32:51;;;;;;;;;3.75;2.00;;;;;9.49;72.64;100520.94;5072941;27;45380;-62
2024/03/05 03:35:17;;;;;;;;;5.00;2.00;;;;;9.48;72.41;100515.75;5070207;27;64819;-62
2024/03/05 03:37:42;;;;;;;;;3.50;1.00;;;;;9.46;72.59;100520.16;5068952;27;45383;-62
2024/03/05 03:40:17;;;;;;;;;7.00;3.25;;;;;9.43;72.91;100515.84;5073664;27;73034;-62
2024/03/05 03:42:44;;;;;;;;;5.00;3.00;;;;;9.42;72.88;100516.75;5068857;27;45791;-62
2024/03/05 03:45:13;;;;;;;;;5.25;2.00;;;;;9.40;73.20;100513.34;5061469;28;45333;-62
2024/03/05 03:47:38;;;;;;;;;2.50;2.00;;;;;9.42;73.19;100528.94;5072115;27;45496;-61
2024/03/05 03:50:03;;;;;;;;;5.50;3.00;;;;;9.43;73.06;100521.06;5079189;27;45377;-62
2024/03/05 03:52:29;;;;;;;;;5.25;2.75;;;;;9.45;73.22;100528.88;5073714;27;54385;-61
2024/03/05 03:54:54;;;;;;;;;6.00;4.50;;;;;9.46;73.28;100530.59;5061259;28;69276;-61
2024/03/05 03:57:20;;;;;;;;;10.75;6.25;;;;;9.44;73.07;100525.41;5070481;28;45267;-61
2024/03/05 03:59:45;;;;;;;;;2.50;2.00;;;;;9.47;73.39;100521.84;5071326;27;58432;-61
2024/03/05 04:02:10;;;;;;;;;6.50;3.25;;;;;9.48;73.01;100520.97;5070727;27;45332;-61
2024/03/05 04:04:36;;;;;;;;;2.50;2.25;;;;;9.48;73.16;100528.81;5072067;27;67308;-61
2024/03/05 04:07:01;;;;;;;;;3.00;2.50;;;;;9.49;72.95;100525.28;5064806;27;45472;-61
2024/03/05 04:09:26;;;;;;;;;2.50;0.75;;;;;9.52;73.11;100534.81;5077805;27;75108;-61
2024/03/05 04:11:52;;;;;;;;;6.75;2.00;;;;;9.54;73.18;100528.63;5073066;27;71125;-61
2024/03/05 04:14:17;;;;;;;;;2.00;2.00;;;;;9.55;73.22;100526.91;5080971;27;52131;-62
2024/03/05 04:16:42;;;;;;;;;3.25;2.00;;;;;9.58;73.28;100532.00;5074517;27;45371;-61
2024/03/05 04:19:08;;;;;;;;;5.75;3.25;;;;;9.58;73.37;100535.50;5071082;27;45255;-61
2024/03/05 04:21:42;;;;;;;;;3.25;2.00;;;;;9.58;73.51;100532.91;5070430;27;45373;-61
2024/03/05 04:24:12;;;;;;;;;2.75;2.50;;;;;9.58;73.49;100532.91;5066542;27;45300;-61
2024/03/05 04:26:39;;;;;;;;;3.00;2.00;;;;;9.59;73.55;100528.53;5066557;27;45494;-61
2024/03/05 04:29:06;;;;;;;;;3.00;3.00;;;;;9.59;73.38;100531.13;5078291;27;46064;-62
2024/03/05 04:31:34;;;;;;;;;3.25;2.00;;;;;9.62;73.64;100538.91;5075413;27;46022;-62
2024/03/05 04:34:00;;;;;;;;;5.75;2.75;;;;;9.61;73.36;100532.78;5065458;28;45504;-61
2024/03/05 04:36:26;;;;;;;;;3.00;3.00;;;;;9.62;73.32;100529.28;5065689;27;45439;-61
2024/03/05 04:38:52;;;;;;;;;5.00;2.25;;;;;9.62;73.60;100533.66;5069772;27;65788;-61
2024/03/05 04:41:17;;;;;;;;;2.00;1.00;;;;;9.65;73.57;100533.56;5076658;27;45459;-61
2024/03/05 04:43:43;;;;;;;;;5.25;2.00;;;;;9.67;73.69;100537.03;5071063;28;45241;-62
2024/03/05 04:46:08;;;;;;;;;2.75;2.00;;;;;9.66;73.48;100532.69;5070005;27;45521;-62
2024/03/05 04:48:33;;;;;;;;;2.00;2.00;;;;;9.68;73.68;100533.50;5068005;27;45487;-61
2024/03/05 04:50:59;;;;;;;;;4.00;2.25;;;;;9.67;73.39;100540.47;5069580;27;45237;-61
2024/03/05 04:53:25;;;;;;;;;6.00;3.00;;;;;9.66;73.72;100541.38;5075499;27;45414;-61
2024/03/05 04:55:50;;;;;;;;;4.00;3.00;;;;;9.65;73.73;100538.78;5066874;27;72892;-62
2024/03/05 04:58:15;;;;;;;;;5.75;3.00;;;;;9.66;73.73;100540.53;5073867;27;75588;-62
2024/03/05 05:00:41;;;;;;;;;5.00;3.00;;;;;9.68;73.50;100538.72;5070678;27;45339;-61
2024/03/05 05:03:06;;;;;;;;;2.00;2.00;;;;;9.67;74.44;100547.47;5065822;27;45301;-61
2024/03/05 05:05:32;;;;;;;;;6.00;2.00;;;;;9.65;74.50;100539.69;5071920;28;70025;-61
2024/03/05 05:08:00;;;;;;;;;3.25;2.00;;;;;9.65;74.81;100544.91;5070386;27;45552;-62
2024/03/05 05:10:25;;;;;;;;;4.50;2.00;;;;;9.62;74.99;100547.59;5076689;27;45854;-62
2024/03/05 05:12:51;;;;;;;;;4.50;2.25;;;;;9.62;75.28;100537.13;5078243;27;45355;-62
2024/03/05 05:15:16;;;;;;;;;5.50;2.00;;;;;9.62;75.95;100547.59;5066537;27;73147;-61
2024/03/05 05:17:41;;;;;;;;;4.00;2.75;;;;;9.60;76.63;100540.69;5071720;27;75765;-62
2024/03/05 05:20:08;;;;;;;;;4.00;4.00;;;;;9.55;76.81;100548.63;5080516;27;45295;-61
2024/03/05 05:22:33;;;;;;;;;6.00;3.00;;;;;9.53;77.00;100545.22;5074606;27;45284;-61
2024/03/05 05:24:58;;;;;;;;;5.00;3.00;;;;;9.50;77.10;100540.06;5062956;28;73494;-61
2024/03/05 05:27:24;;;;;;;;;5.50;4.25;;;;;9.53;77.45;100547.81;5066041;27;74608;-62
2024/03/05 05:29:50;;;;;;;;;6.00;3.50;;;;;9.50;77.12;100546.13;5079985;27;44813;-61
2024/03/05 05:32:15;;;;;;;;;6.25;4.00;;;;;9.48;77.62;100549.69;5070125;27;45548;-62
2024/03/05 05:34:42;;;;;;;;;5.00;3.50;;;;;9.49;77.25;100552.28;5059190;28;72959;-61
2024/03/05 05:37:07;;;;;;;;;5.50;3.00;;;;;9.49;77.27;100554.00;5074021;27;46185;-61
2024/03/05 05:39:32;;;;;;;;;8.00;3.25;;;;;9.46;77.24;100546.28;5068992;28;45300;-62
2024/03/05 05:41:58;;;;;;;;;5.50;3.25;;;;;9.46;77.46;100541.06;5063944;27;61070;-61
2024/03/05 05:44:23;;;;;;;;;6.75;5.00;;;;;9.43;77.31;100538.50;5074923;27;66073;-62
2024/03/05 05:46:48;;;;;;;;;4.75;4.75;;;;;9.42;77.49;100539.38;5064722;27;75490;-62
2024/03/05 05:49:19;;;;;;;;;6.00;4.00;;;;;9.43;77.85;100549.81;5073606;27;48641;-61
2024/03/05 05:51:48;;;;;;;;;7.75;5.00;;;;;9.47;78.12;100547.97;5071264;27;45488;-61
2024/03/05 05:54:13;;;;;;;;;5.00;3.75;;;;;9.49;77.64;100556.63;5063980;28;45450;-61
2024/03/05 05:56:39;;;;;;;;;5.00;5.00;;;;;9.47;77.54;100559.28;5071946;27;67192;-62
2024/03/05 05:59:05;;;;;;;;;4.50;4.50;;;;;9.47;77.41;100561.03;5072815;27;45302;-61
2024/03/05 06:01:33;;;;;;;;;4.00;4.00;;;;;9.47;77.58;100571.47;5070548;27;45512;-61
2024/03/05 06:03:58;;;;;;;;;6.50;4.00;;;;;9.48;77.42;100563.59;5069868;27;45490;-61
2024/03/05 06:06:24;;;;;;;;;2.75;2.75;;;;;9.48;77.38;100565.38;5064306;27;45604;-61
2024/03/05 06:08:49;;;;;;;;;4.00;3.75;;;;;9.49;77.25;100569.69;5062154;27;45201;-61
2024/03/05 06:11:15;;;;;;;;;4.50;3.00;;;;;9.49;77.24;100565.34;5073757;27;45459;-61
2024/03/05 06:13:41;;;;;;;;;3.00;3.00;;;;;9.49;77.04;100564.47;5060503;28;67738;-61
2024/03/05 06:16:07;;;;;;;;;4.75;4.00;;;;;9.49;77.25;100572.28;5068129;27;45918;-62
2024/03/05 06:18:33;;;;;;;;;8.75;4.00;;;;;9.48;76.56;100568.84;5075140;28;45931;-61
2024/03/05 06:20:58;;;;;;;;;3.50;3.00;;;;;9.41;76.64;100569.88;5063472;27;45423;-61
2024/03/05 06:23:24;;;;;;;;;5.00;3.25;;;;;9.37;77.02;100572.63;5060526;27;45807;-61
2024/03/05 06:25:49;;;;;;;;;3.50;3.00;;;;;9.35;76.93;100564.81;5067487;28;45284;-61
2024/03/05 06:28:15;;;;;;;;;4.75;3.00;;;;;9.32;76.94;100570.97;5070407;28;45283;-62
2024/03/05 06:30:46;;;;;;;;;4.00;3.00;;;;;9.31;76.74;100571.00;5071598;27;45334;-62
2024/03/05 06:33:14;;;;;;;;;5.25;3.00;;;;;9.31;76.80;100581.44;5068522;27;45739;-62
2024/03/05 06:35:40;;;;;;;;;4.50;2.50;;;;;9.29;76.71;100578.00;5070657;28;46231;-62
2024/03/05 06:38:07;;;;;;;;;4.00;3.00;;;;;9.24;76.73;100578.16;5062629;28;45346;-62
2024/03/05 06:40:32;;;;;;;;;5.50;3.00;;;;;9.20;76.85;100581.69;5054913;28;45284;-62
2024/03/05 06:43:05;;;;;;;;;4.75;4.00;;;;;9.18;76.83;100575.66;5070775;27;66112;-62
2024/03/05 06:45:31;;;;;;;;;6.00;4.00;;;;;9.16;77.01;100585.28;5065883;28;45523;-64
2024/03/05 06:47:57;;;;;;;;;6.00;2.25;;;;;9.12;76.77;100591.50;5074335;28;45359;-64
2024/03/05 06:50:23;;;;;;;;;4.50;2.00;;;;;9.13;77.02;100595.78;5060113;28;45276;-60
2024/03/05 06:58:17;;;;;;;;;5.00;3.00;;;;;9.27;77.01;100595.47;5075826;28;45314;-63
2024/03/05 07:00:46;;;;;;;;;2.00;2.00;;;;;9.34;76.75;100604.03;5060576;28;69234;-63
2024/03/05 07:03:12;;;;;;;;;6.25;2.50;;;;;9.38;76.95;100606.50;5069721;27;45751;-63
2024/03/05 07:05:37;;;;;;;;;6.00;3.00;;;;;9.41;76.59;100589.94;5074736;28;47081;-61
2024/03/05 07:08:05;;;;;;;;;4.00;3.00;;;;;9.47;76.91;100593.25;5072938;27;45413;-60
2024/03/05 07:10:31;;;;;;;;;3.25;3.00;;;;;9.54;76.35;100595.69;5065106;28;45497;-61
2024/03/05 07:12:57;;;;;;;;;3.50;2.00;;;;;9.56;76.59;100594.78;5066373;27;45452;-60
2024/03/05 07:15:23;;;;;;;;;3.00;2.00;;;;;9.60;75.92;100600.78;5077259;27;67451;-59
2024/03/05 07:17:49;;;;;;;;;4.00;2.75;;;;;9.60;75.89;100593.78;5059881;28;45224;-59
2024/03/05 07:20:22;;;;;;;;;4.00;3.75;;;;;9.63;75.79;100609.41;5072804;27;45547;-59
2024/03/05 07:22:48;;;;;;;;;4.00;2.00;;;;;9.66;75.69;100614.53;5071929;27;45504;-60
2024/03/05 07:25:17;;;;;;;;;3.00;2.50;;;;;9.67;75.62;100608.41;5062834;28;49446;-59
2024/03/05 07:27:44;;;;;;;;;3.00;3.00;;;;;9.69;75.55;100613.63;5065840;28;45797;-60
2024/03/05 07:30:12;;;;;;;;;2.75;2.00;;;;;9.72;75.72;100610.03;5066927;28;45455;-60
2024/03/05 07:32:38;;;;;;;;;5.25;3.00;;;;;9.75;75.34;100617.81;5076037;27;45476;-60
2024/03/05 07:35:04;;;;;;;;;3.75;3.00;;;;;9.78;74.86;100613.38;5062950;27;46221;-60
2024/03/05 07:37:29;;;;;;;;;4.50;3.00;;;;;9.85;74.93;100614.94;5078190;28;45224;-61
2024/03/05 07:39:54;;;;;;;;;4.00;2.00;;;;;9.92;74.43;100612.16;5067662;28;45292;-60
2024/03/05 07:42:20;;;;;;;;;4.00;2.50;;;;;9.94;74.37;100615.59;5070809;28;56826;-61
2024/03/05 07:44:45;;;;;;;;;5.50;2.00;;;;;9.96;74.17;100624.25;5061716;28;65602;-61
2024/03/05 07:47:10;;;;;;;;;1.25;1.25;;;;;9.98;74.08;100618.06;5072464;28;60109;-61
2024/03/05 07:49:36;;;;;;;;;3.75;2.00;;;;;10.00;73.58;100616.25;5068044;28;45749;-60
2024/03/05 07:52:02;;;;;;;;;1.50;1.00;;;;;10.06;73.07;100634.41;5069577;27;68446;-60
2024/03/05 07:54:27;;;;;;;;;3.00;1.00;;;;;10.14;73.14;100622.91;5062534;28;46028;-60
2024/03/05 07:56:52;;;;;;;;;1.00;1.00;;;;;10.23;73.09;100623.53;5064372;28;45288;-61
2024/03/05 07:59:18;;;;;;;;;2.00;1.00;;;;;10.29;72.32;100632.06;5077884;28;50869;-61
2024/03/05 08:01:45;;;;;;;;;3.50;1.00;;;;;10.30;72.03;100628.56;5066172;28;45519;-61
2024/03/05 08:04:10;;;;;;;;;3.50;2.00;;;;;10.30;71.83;100633.81;5063763;28;45973;-64
2024/03/05 08:06:36;;;;;;;;;1.25;1.00;;;;;10.29;71.72;100637.31;5069895;27;72730;-68
2024/03/05 08:09:03;;;;;;;;;4.00;2.00;;;;;10.34;71.45;100636.34;5076162;27;45333;-69
2024/03/05 08:11:28;;;;;;;;;3.50;2.00;;;;;10.44;71.26;100648.22;5067455;27;45639;-67
2024/03/05 08:13:54;;;;;;;;;3.75;1.00;;;;;10.51;70.84;100648.06;5060829;28;64587;-68
2024/03/05 08:16:20;;;;;;;;;2.00;1.00;;;;;10.53;70.45;100651.50;5074776;28;73330;-68
2024/03/05 08:18:46;;;;;;;;;2.00;1.00;;;;;10.56;70.35;100648.81;5070476;28;45632;-67
2024/03/05 08:21:11;;;;;;;;;0.75;0.50;;;;;10.58;69.81;100649.63;5064398;27;45432;-68
2024/03/05 08:23:36;;;;;;;;;0.50;0.00;;;;;10.63;69.37;100652.97;5074601;28;49639;-68
2024/03/05 08:26:05;;;;;;;;;1.50;1.00;;;;;10.61;69.00;100654.78;5077151;28;45476;-67
2024/03/05 08:28:30;;;;;;;;;0.00;0.00;;;;;10.64;68.63;100662.50;5062056;28;45337;-67
2024/03/05 08:30:56;;;;;;;;;3.00;1.00;;;;;10.62;68.07;100662.59;5075923;27;45354;-67
2024/03/05 08:33:23;;;;;;;;;0.50;0.50;;;;;10.62;68.02;100661.69;5076167;27;47046;-65
2024/03/05 08:35:48;;;;;;;;;1.75;1.00;;;;;10.67;68.15;100672.06;5074150;27;45382;-68
2024/03/05 08:38:14;;;;;;;;;1.50;0.00;;;;;10.72;67.72;100672.78;5073569;27;45454;-68
2024/03/05 08:40:39;;;;;;;;;1.75;0.00;;;;;10.73;67.55;100669.25;5075033;27;69419;-61
2024/03/05 08:43:07;;;;;;;;;1.00;1.00;;;;;10.73;67.42;100669.25;5068650;27;72085;-68
2024/03/05 08:45:32;;;;;;;;;2.00;0.00;;;;;10.72;67.41;100676.25;5064373;28;45447;-67
2024/03/05 08:47:58;;;;;;;;;1.00;1.00;;;;;10.72;66.88;100685.88;5062925;27;47129;-69
2024/03/05 08:50:27;;;;;;;;;0.75;0.75;;;;;10.66;67.42;100683.41;5072025;27;45591;-66
2024/03/05 08:52:52;;;;;;;;;1.50;0.00;;;;;10.65;67.63;100687.78;5073385;27;46054;-66
2024/03/05 08:55:17;;;;;;;;;1.00;0.00;;;;;10.69;67.29;100699.03;5065573;27;54214;-64
2024/03/05 08:57:43;;;;;;;;;2.00;0.50;;;;;10.71;66.71;100702.47;5072300;27;45252;-62
2024/03/05 09:00:17;;;;;;;;;0.50;0.00;;;;;10.71;66.96;100699.84;5067513;27;45442;-61
2024/03/05 09:02:43;;;;;;;;;0.75;0.00;;;;;10.70;66.63;100704.22;5072125;27;45592;-61
2024/03/05 09:05:11;;;;;;;;;0.00;0.00;;;;;10.69;66.47;100706.88;5069903;27;45402;-69
2024/03/05 09:07:37;;;;;;;;;1.75;1.00;;;;;10.70;66.49;100716.47;5068295;27;45374;-66
2024/03/05 09:10:05;;;;;;;;;0.75;0.75;;;;;10.70;66.26;100716.47;5071713;27;45440;-65
2024/03/05 09:12:30;;;;;;;;;1.25;1.00;;;;;10.71;65.94;100719.06;5069955;27;46395;-70
2024/03/05 09:14:55;;;;;;;;;2.00;0.75;;;;;10.73;65.88;100716.34;5067562;28;73201;-69
2024/03/05 09:17:22;;;;;;;;;1.00;1.00;;;;;10.73;65.88;100719.84;5062734;28;45250;-68
2024/03/05 09:19:48;;;;;;;;;0.25;0.25;;;;;10.74;65.68;100724.16;5051305;28;45472;-69
2024/03/05 09:22:15;;;;;;;;;0.00;0.00;;;;;10.71;65.46;100726.03;5080358;27;46225;-69
2024/03/05 09:24:43;;;;;;;;;1.00;0.00;;;;;10.70;65.11;100726.94;5064795;28;45233;-69
2024/03/05 09:27:08;;;;;;;;;1.50;0.25;;;;;10.68;64.96;100736.56;5043512;28;45474;-68
2024/03/05 09:29:34;;;;;;;;;1.00;0.00;;;;;10.67;65.45;100737.47;5071537;28;45575;-62
2024/03/05 09:32:00;;;;;;;;;1.00;1.00;;;;;10.67;64.90;100737.47;5062512;28;46192;-67
2024/03/05 09:34:26;;;;;;;;;0.50;0.00;;;;;10.66;64.70;100746.22;5078675;27;45840;-68
2024/03/05 09:36:51;;;;;;;;;1.00;0.75;;;;;10.67;65.21;100751.41;5047386;28;45464;-66
2024/03/05 09:39:20;;;;;;;;;0.50;0.50;;;;;10.69;64.82;100747.00;5065360;28;65700;-67
2024/03/05 09:41:46;;;;;;;;;0.25;0.25;;;;;10.76;64.63;100752.94;5073260;27;45426;-68
2024/03/05 09:44:12;;;;;;;;;1.50;0.00;;;;;10.80;64.55;100754.56;5076965;27;45525;-68
2024/03/05 09:46:38;;;;;;;;;2.50;0.00;;;;;10.87;64.84;100753.50;5075651;28;45484;-66
2024/03/05 09:49:10;;;;;;;;;1.00;1.00;;;;;10.98;64.33;100755.81;5064931;28;45437;-66
2024/03/05 09:51:39;;;;;;;;;2.00;0.00;;;;;11.13;64.47;100762.38;5065993;27;46116;-66
2024/03/05 09:54:06;;;;;;;;;2.00;0.00;;;;;11.27;63.97;100767.22;5062035;28;45752;-70
2024/03/05 09:56:33;;;;;;;;;0.00;0.00;;;;;11.38;63.92;100766.00;5067943;28;45446;-61
2024/03/05 09:59:03;;;;;;;;;1.00;1.00;;;;;11.43;63.54;100765.00;5068029;28;47030;-61
2024/03/05 10:01:29;;;;;;;;;1.50;0.25;;;;;11.51;63.00;100770.84;5065236;27;45355;-61
2024/03/05 10:03:54;;;;;;;;;0.75;0.75;;;;;11.46;63.20;100772.78;5066977;27;72994;-61
2024/03/05 10:06:20;;;;;;;;;1.00;1.00;;;;;11.46;62.89;100768.38;5061992;28;66752;-61
2024/03/05 10:08:45;;;;;;;;;4.00;1.00;;;;;11.42;62.89;100777.25;5068612;28;59363;-61
2024/03/05 10:11:11;;;;;;;;;2.25;0.75;;;;;11.34;62.48;100779.22;5061935;28;46157;-61
2024/03/05 10:13:37;;;;;;;;;0.00;0.00;;;;;11.31;62.42;100780.16;5073733;28;45272;-60
2024/03/05 10:16:19;;;;;;;;;0.50;0.50;;;;;11.25;62.02;100790.84;5062503;28;45293;-61
2024/03/05 10:18:49;;;;;;;;;2.00;0.00;;;;;11.21;61.86;100791.84;5060132;28;45304;-61
2024/03/05 10:21:23;;;;;;;;;0.00;0.00;;;;;11.23;61.91;100792.63;5063963;27;46338;-62
2024/03/05 10:23:59;;;;;;;;;1.00;1.00;;;;;11.26;61.55;100802.16;5078480;28;45792;-61
2024/03/05 10:26:27;;;;;;;;;1.00;1.00;;;;;11.27;61.80;100807.34;5078774;28;45839;-63
2024/03/05 10:28:57;;;;;;;;;2.00;0.00;;;;;11.27;61.63;100804.75;5066342;28;45386;-62
2024/03/05 10:31:25;;;;;;;;;0.50;0.00;;;;;11.25;61.31;100798.69;5072345;27;46359;-62
2024/03/05 10:33:53;;;;;;;;;1.00;1.00;;;;;11.26;61.62;100800.41;5076186;28;45724;-62
2024/03/05 10:36:48;;;;;;;;;2.25;0.00;;;;;11.23;61.37;100792.63;5070332;28;45390;-60
2024/03/05 10:39:14;;;;;;;;;0.00;0.00;;;;;11.20;62.28;100796.19;5053009;28;45303;-61
2024/03/05 10:41:40;;;;;;;;;1.00;1.00;;;;;11.27;61.83;100802.13;5071839;27;45580;-60
2024/03/05 10:44:07;;;;;;;;;1.00;1.00;;;;;11.34;61.82;100794.94;5071084;28;45386;-61
2024/03/05 10:46:34;;;;;;;;;0.00;0.00;;;;;11.33;61.08;100791.47;5074557;28;45299;-61
2024/03/05 10:49:01;;;;;;;;;0.75;0.75;;;;;11.28;60.98;100809.09;5077693;28;46049;-60
2024/03/05 10:51:29;;;;;;;;;0.00;0.00;;;;;11.23;61.19;100800.50;5067813;28;46270;-60
2024/03/05 10:53:59;;;;;;;;;0.25;0.00;;;;;11.26;61.36;100803.03;5067183;27;46497;-61
2024/03/05 10:56:25;;;;;;;;;1.00;1.00;;;;;11.35;61.22;100810.63;5066281;27;45431;-61
2024/03/05 11:01:37;;;;;;;;;3.50;2.00;;;;;11.65;60.52;100813.25;5071173;27;45697;-62
2024/03/05 11:04:11;;;;;;;;;0.50;0.50;;;;;11.73;60.29;100819.09;5077142;27;45836;-61
2024/03/05 11:06:40;;;;;;;;;1.00;1.00;;;;;11.79;60.01;100815.44;5088415;27;45467;-59
2024/03/05 11:09:08;;;;;;;;;2.75;1.00;;;;;11.84;59.30;100812.66;5074365;27;45527;-62
2024/03/05 11:11:34;;;;;;;;;4.25;1.00;;;;;11.94;59.50;100812.38;5068564;27;46363;-63
2024/03/05 11:14:01;;;;;;;;;2.00;2.00;;;;;12.03;59.25;100818.25;5069981;27;45977;-62
2024/03/05 11:16:28;;;;;;;;;3.50;2.00;;;;;12.13;59.25;100811.81;5075561;27;45554;-62
2024/03/05 11:18:53;;;;;;;;;3.50;1.50;;;;;12.18;58.90;100809.84;5077032;27;45681;-61
2024/03/05 11:21:22;;;;;;;;;2.00;1.25;;;;;12.20;58.21;100829.06;5076519;27;73763;-61
2024/03/05 11:23:55;;;;;;;;;2.25;2.00;;;;;12.27;58.57;100821.81;5060093;28;45345;-61
2024/03/05 11:26:25;;;;;;;;;2.25;0.25;;;;;12.27;57.94;100820.06;5074179;27;45484;-59
2024/03/05 11:29:00;;;;;;;;;4.75;2.00;;;;;12.19;57.69;100816.84;5069661;27;45436;-59
2024/03/05 11:31:27;;;;;;;;;7.75;3.00;;;;;12.23;58.11;100820.22;5077143;27;46396;-59
2024/03/05 11:34:17;;;;;;;;;4.00;3.00;;;;;12.25;57.82;100837.66;5074596;28;45382;-59
2024/03/05 11:36:42;;;;;;;;;5.50;3.00;;;;;12.39;57.77;100825.81;5077688;27;45363;-58